Terminal Aerodrome Forecast
Issued by NWS

Home | Current Version | Previous Version | Text Only | Print | Product List | Glossary On
Versions: 1 2 3 4 5 6 7 8 9 10 11 12 13 14 15 16 17 18 19 20 21 22
000
FTUS43 KBIS 232300
TAFDIK
TAF
KDIK 232339Z 2400/2424 14013G21KT P6SM FEW090
     FM240500 13015KT P6SM VCTS BKN080CB
      TEMPO 2406/2408 VRB15G25KT 4SM -TSRA BKN060CB
     FM241100 14015KT P6SM SCT250=

USA.gov is the U.S. government's official web portal to all federal, state and local government web resources and services.